createdAt,value
2023-05-05T00:01:27.696Z,80892.97
2023-05-05T00:03:09.066Z,80896.44
2023-05-05T00:04:50.422Z,80888.56
2023-05-05T00:06:31.774Z,80890.50
2023-05-05T00:08:13.077Z,80889.16
2023-05-05T00:09:54.349Z,80887.81
2023-05-05T00:11:35.618Z,80879.44
2023-05-05T00:13:16.938Z,80884.44
2023-05-05T00:14:58.230Z,80873.38
2023-05-05T00:16:39.618Z,80877.66
2023-05-05T00:18:20.956Z,80870.13
2023-05-05T00:20:02.235Z,80872.00
2023-05-05T00:21:43.523Z,80874.13
2023-05-05T00:23:24.852Z,80865.41
2023-05-05T00:25:06.159Z,80872.31
2023-05-05T00:26:47.452Z,80864.94
2023-05-05T00:28:28.756Z,80875.47
2023-05-05T00:30:10.231Z,80871.88
2023-05-05T00:31:51.610Z,80871.88
2023-05-05T00:33:32.900Z,80866.44
2023-05-05T00:35:14.180Z,80859.16
2023-05-05T00:36:55.495Z,80863.19
2023-05-05T00:38:36.784Z,80865.34
2023-05-05T00:40:18.064Z,80862.69
2023-05-05T00:41:59.378Z,80862.81
2023-05-05T00:43:40.697Z,80853.66
2023-05-05T00:45:22.029Z,80855.88
2023-05-05T00:47:03.310Z,80856.94
2023-05-05T00:48:44.634Z,80860.53
2023-05-05T00:50:25.999Z,80853.50
2023-05-05T00:52:07.386Z,80854.75
2023-05-05T00:53:48.736Z,80856.56
2023-05-05T00:55:30.099Z,80858.09
2023-05-05T00:57:11.439Z,80858.00
2023-05-05T00:58:52.701Z,80852.16
2023-05-05T01:00:33.992Z,80846.91
2023-05-05T01:02:15.333Z,80851.69
2023-05-05T01:03:56.771Z,80851.44
2023-05-05T01:05:38.129Z,80849.53
2023-05-05T01:07:19.444Z,80845.63
2023-05-05T01:09:00.744Z,80851.44
2023-05-05T01:10:42.050Z,80836.72
2023-05-05T01:12:23.409Z,80836.44
2023-05-05T01:14:04.704Z,80833.69
2023-05-05T01:15:46.015Z,80840.28
2023-05-05T01:17:27.343Z,80839.56
2023-05-05T01:19:08.686Z,80834.06
2023-05-05T01:20:50.015Z,80835.59
2023-05-05T01:22:31.309Z,80831.00
2023-05-05T01:24:12.600Z,80831.78
2023-05-05T01:25:53.911Z,80832.50
2023-05-05T01:27:35.219Z,80827.31
2023-05-05T01:29:16.507Z,80817.34
2023-05-05T01:30:57.785Z,80824.78
2023-05-05T01:32:39.127Z,80827.41
2023-05-05T01:34:20.457Z,80823.81
2023-05-05T01:36:01.701Z,80825.63
2023-05-05T01:37:43.003Z,80824.13
2023-05-05T01:39:24.306Z,80821.06
2023-05-05T01:41:05.608Z,80817.69
2023-05-05T01:42:46.922Z,80816.97
2023-05-05T01:44:28.211Z,80819.09
2023-05-05T01:46:09.548Z,80813.28
2023-05-05T01:47:50.986Z,80813.84
2023-05-05T01:49:32.352Z,80813.53
2023-05-05T01:51:13.632Z,80812.44
2023-05-05T01:52:54.989Z,80806.56
2023-05-05T01:54:36.307Z,80806.03
2023-05-05T01:56:17.613Z,80812.50
2023-05-05T01:57:58.861Z,80810.66
2023-05-05T01:59:40.156Z,80812.56
2023-05-05T02:01:21.547Z,80812.78
2023-05-05T02:03:03.021Z,80806.84
2023-05-05T02:04:44.426Z,80810.19
2023-05-05T02:06:25.729Z,80807.91
2023-05-05T02:08:07.000Z,80805.94
2023-05-05T02:09:48.287Z,80806.25
2023-05-05T02:11:29.629Z,80807.03
2023-05-05T02:13:11.047Z,80803.94
2023-05-05T02:14:52.424Z,80804.78
2023-05-05T02:16:33.707Z,80809.66
2023-05-05T02:18:14.994Z,80797.78
2023-05-05T02:19:56.268Z,80801.19
2023-05-05T02:21:37.620Z,80814.28
2023-05-05T02:23:18.930Z,80798.88
2023-05-05T02:25:00.206Z,80808.06
2023-05-05T02:26:41.507Z,80796.66
2023-05-05T02:28:22.762Z,80796.81
2023-05-05T02:30:04.070Z,80794.59
2023-05-05T02:31:45.399Z,80794.78
2023-05-05T02:33:26.767Z,80799.91
2023-05-05T02:35:08.070Z,80794.78
2023-05-05T02:36:49.348Z,80799.84
2023-05-05T02:38:30.629Z,80795.97
2023-05-05T02:40:11.951Z,80799.66
2023-05-05T02:41:53.222Z,80799.81
2023-05-05T02:43:34.535Z,80797.63
2023-05-05T02:45:15.838Z,80799.22
2023-05-05T02:46:57.131Z,80795.06
2023-05-05T02:48:38.436Z,80795.78
2023-05-05T02:50:19.732Z,80793.59
2023-05-05T02:52:01.015Z,80794.28
2023-05-05T02:53:42.290Z,80795.25
2023-05-05T02:55:23.598Z,80791.75
2023-05-05T02:57:04.863Z,80796.09
2023-05-05T02:58:46.169Z,80800.13
2023-05-05T03:00:27.453Z,80795.91
2023-05-05T03:02:08.769Z,80797.78
2023-05-05T03:03:50.239Z,80797.59
2023-05-05T03:05:31.656Z,80790.84
2023-05-05T03:07:12.962Z,80795.63
2023-05-05T03:08:54.233Z,80795.88
2023-05-05T03:10:35.555Z,80788.88
2023-05-05T03:12:16.836Z,80791.63
2023-05-05T03:13:58.129Z,80791.09
2023-05-05T03:15:39.455Z,80789.97
2023-05-05T03:17:20.784Z,80790.53
2023-05-05T03:19:02.109Z,80789.19
2023-05-05T03:20:43.400Z,80787.28
2023-05-05T03:22:24.652Z,80781.03
2023-05-05T03:24:05.977Z,80791.38
2023-05-05T03:25:47.259Z,80790.47
2023-05-05T03:27:28.514Z,80785.28
2023-05-05T03:29:09.804Z,80790.31
2023-05-05T03:30:51.092Z,80784.19
2023-05-05T03:32:32.436Z,80789.16
2023-05-05T03:34:13.792Z,80794.81
2023-05-05T03:35:55.098Z,80788.72
2023-05-05T03:37:36.367Z,80782.38
2023-05-05T03:39:17.707Z,80794.91
2023-05-05T03:40:59.054Z,80794.88
2023-05-05T03:42:40.316Z,80782.75
2023-05-05T03:44:21.600Z,80783.38
2023-05-05T03:46:02.966Z,80785.72
2023-05-05T03:47:44.261Z,80779.66
2023-05-05T03:49:25.560Z,80778.44
2023-05-05T03:51:06.837Z,80777.03
2023-05-05T03:52:48.309Z,80789.94
2023-05-05T03:54:29.624Z,80779.13
2023-05-05T03:56:10.922Z,80784.00
2023-05-05T03:57:52.235Z,80776.59
2023-05-05T03:59:33.496Z,80778.69
2023-05-05T04:01:14.790Z,80775.97
2023-05-05T04:02:56.142Z,80777.50
2023-05-05T04:04:37.505Z,80780.88
2023-05-05T04:06:18.806Z,80772.09
2023-05-05T04:08:00.124Z,80781.28
2023-05-05T04:09:41.451Z,80781.66
2023-05-05T04:11:22.740Z,80778.94
2023-05-05T04:13:05.470Z,80786.22
2023-05-05T04:14:46.816Z,80779.22
2023-05-05T04:16:28.223Z,80783.50
2023-05-05T04:18:09.757Z,80779.56
2023-05-05T04:19:51.114Z,80783.22
2023-05-05T04:21:32.417Z,80783.00
2023-05-05T04:23:13.693Z,80779.59
2023-05-05T04:24:55.017Z,80778.09
2023-05-05T04:26:36.369Z,80782.00
2023-05-05T04:28:18.710Z,80778.69
2023-05-05T04:30:01.572Z,80780.03
2023-05-05T04:31:42.955Z,80786.19
2023-05-05T04:33:24.322Z,80782.41
2023-05-05T04:35:05.637Z,80780.69
2023-05-05T04:36:46.938Z,80779.63
2023-05-05T04:38:28.266Z,80777.59
2023-05-05T04:40:09.786Z,80771.81
2023-05-05T04:41:51.216Z,80776.50
2023-05-05T04:43:32.525Z,80782.94
2023-05-05T04:45:13.835Z,80778.13
2023-05-05T04:46:55.202Z,80777.66
2023-05-05T04:48:36.612Z,80775.94
2023-05-05T04:50:17.900Z,80777.81
2023-05-05T04:51:59.170Z,80778.41
2023-05-05T04:53:40.511Z,80772.47
2023-05-05T04:55:21.824Z,80769.38
2023-05-05T04:57:03.106Z,80784.84
2023-05-05T04:58:44.411Z,80786.16
2023-05-05T05:00:25.709Z,80779.44
2023-05-05T05:02:07.043Z,80771.09
2023-05-05T05:03:48.445Z,80778.44
2023-05-05T05:05:29.726Z,80775.91
2023-05-05T05:07:10.995Z,80771.88
2023-05-05T05:08:52.297Z,80777.81
2023-05-05T05:10:33.606Z,80780.78
2023-05-05T05:12:14.927Z,80776.06
2023-05-05T05:13:56.232Z,80777.91
2023-05-05T05:15:37.513Z,80783.13
2023-05-05T05:17:18.832Z,80768.59
2023-05-05T05:19:01.684Z,80766.41
2023-05-05T05:20:43.272Z,80776.13
2023-05-05T05:22:24.560Z,80771.09
2023-05-05T05:24:05.870Z,80770.91
2023-05-05T05:25:47.152Z,80763.72
2023-05-05T05:27:28.462Z,80769.22
2023-05-05T05:29:09.736Z,80770.38
2023-05-05T05:30:51.079Z,80765.03
2023-05-05T05:32:32.378Z,80773.00
2023-05-05T05:34:13.709Z,80768.25
2023-05-05T05:35:55.003Z,80763.81
2023-05-05T05:37:36.285Z,80772.25
2023-05-05T05:39:17.638Z,80761.59
2023-05-05T05:40:58.950Z,80765.72
2023-05-05T05:42:40.267Z,80769.06
2023-05-05T05:44:21.556Z,80768.53
2023-05-05T05:46:02.897Z,80763.94
2023-05-05T05:47:44.257Z,80773.16
2023-05-05T05:49:25.561Z,80769.19
2023-05-05T05:51:06.872Z,80768.88
2023-05-05T05:52:48.176Z,80765.34
2023-05-05T05:54:29.463Z,80770.66
2023-05-05T05:56:10.758Z,80775.28
2023-05-05T05:57:52.229Z,80774.06
2023-05-05T05:59:33.554Z,80774.53
2023-05-05T06:01:14.866Z,80769.72
2023-05-05T06:02:56.251Z,80766.69
2023-05-05T06:04:37.723Z,80777.91
2023-05-05T06:06:19.023Z,80770.00
2023-05-05T06:08:00.362Z,80768.97
2023-05-05T06:09:41.692Z,80777.56
2023-05-05T06:11:23.007Z,80781.28
2023-05-05T06:13:04.313Z,80782.25
2023-05-05T06:14:45.630Z,80785.97
2023-05-05T06:16:27.054Z,80775.63
2023-05-05T06:18:08.448Z,80784.31
2023-05-05T06:19:49.784Z,80785.00
2023-05-05T06:21:31.112Z,80781.03
2023-05-05T06:23:12.403Z,80784.25
2023-05-05T06:24:53.718Z,80780.88
2023-05-05T06:26:35.027Z,80786.69
2023-05-05T06:28:16.326Z,80783.97
2023-05-05T06:29:57.657Z,80794.78
2023-05-05T06:31:39.090Z,80787.34
2023-05-05T06:33:20.410Z,80790.50
2023-05-05T06:35:01.718Z,80792.47
2023-05-05T06:36:43.043Z,80790.34
2023-05-05T06:38:24.409Z,80794.00
2023-05-05T06:40:05.877Z,80790.75
2023-05-05T06:41:47.235Z,80795.00
2023-05-05T06:43:28.550Z,80788.53
2023-05-05T06:45:09.853Z,80793.69
2023-05-05T06:46:51.374Z,80793.19
2023-05-05T06:48:32.693Z,80790.06
2023-05-05T06:50:14.003Z,80793.22
2023-05-05T06:51:55.304Z,80782.84
2023-05-05T06:53:36.587Z,80790.25
2023-05-05T06:55:17.891Z,80791.13
2023-05-05T06:56:59.796Z,80790.47
2023-05-05T06:58:41.166Z,80793.66
2023-05-05T07:00:22.457Z,80795.16
2023-05-05T07:02:03.770Z,80792.38
2023-05-05T07:03:45.085Z,80797.91
2023-05-05T07:05:26.390Z,80796.00
2023-05-05T07:07:07.669Z,80794.63
2023-05-05T07:08:48.967Z,80785.66
2023-05-05T07:10:30.260Z,80785.59
2023-05-05T07:12:11.528Z,80792.75
2023-05-05T07:13:52.901Z,80787.63
2023-05-05T07:15:34.228Z,80792.28
2023-05-05T07:17:15.488Z,80788.34
2023-05-05T07:18:56.887Z,80784.63
2023-05-05T07:20:38.173Z,80784.69
2023-05-05T07:22:19.465Z,80772.69
2023-05-05T07:24:00.784Z,80779.56
2023-05-05T07:25:42.091Z,80786.22
2023-05-05T07:27:23.368Z,80780.25
2023-05-05T07:29:04.686Z,80783.19
2023-05-05T07:30:45.999Z,80776.19
2023-05-05T07:32:27.297Z,80774.69
2023-05-05T07:34:08.668Z,80774.28
2023-05-05T07:35:49.943Z,80777.78
2023-05-05T07:37:31.211Z,80773.00
2023-05-05T07:39:12.529Z,80781.78
2023-05-05T07:40:53.841Z,80775.00
2023-05-05T07:42:35.148Z,80769.41
2023-05-05T07:44:16.498Z,80777.38
2023-05-05T07:45:57.806Z,80770.34
2023-05-05T07:47:39.199Z,80767.78
2023-05-05T07:49:20.617Z,80772.66
2023-05-05T07:51:03.130Z,80763.25
2023-05-05T07:52:49.881Z,80768.28
2023-05-05T07:54:35.134Z,80765.59
2023-05-05T07:56:16.440Z,80767.44
2023-05-05T07:57:57.749Z,80762.03
2023-05-05T07:59:39.061Z,80762.31
2023-05-05T08:01:20.349Z,80771.94
2023-05-05T08:03:01.746Z,80759.47
2023-05-05T08:04:43.171Z,80754.38
2023-05-05T08:06:24.504Z,80753.78
2023-05-05T08:08:05.845Z,80738.59
2023-05-05T08:09:47.144Z,80745.16
2023-05-05T08:11:29.611Z,80742.41
2023-05-05T08:13:11.077Z,80740.31
2023-05-05T08:14:52.424Z,80748.03
2023-05-05T08:16:33.873Z,80745.25
2023-05-05T08:18:15.312Z,80746.81
2023-05-05T08:19:56.634Z,80742.66
2023-05-05T08:21:37.945Z,80738.69
2023-05-05T08:23:19.259Z,80728.75
2023-05-05T08:25:00.574Z,80732.19
2023-05-05T08:26:41.856Z,80736.91
2023-05-05T08:28:23.187Z,80730.38
2023-05-05T08:30:04.518Z,80735.53
2023-05-05T08:31:45.907Z,80731.41
2023-05-05T08:33:27.240Z,80722.19
2023-05-05T08:35:08.777Z,80726.75
2023-05-05T08:36:50.384Z,80734.78
2023-05-05T08:38:31.651Z,80730.91
2023-05-05T08:40:12.986Z,80730.28
2023-05-05T08:41:54.271Z,80725.97
2023-05-05T08:43:35.594Z,80729.28
2023-05-05T08:45:16.922Z,80736.75
2023-05-05T08:46:58.673Z,80734.66
2023-05-05T08:48:40.026Z,80727.66
2023-05-05T08:50:21.288Z,80722.13
2023-05-05T08:52:02.644Z,80715.66
2023-05-05T08:53:43.962Z,80717.19
2023-05-05T08:55:25.308Z,80718.19
2023-05-05T08:57:06.666Z,80719.78
2023-05-05T08:58:47.964Z,80720.59
2023-05-05T09:00:29.238Z,80714.34
2023-05-05T09:02:10.605Z,80719.53
2023-05-05T09:03:52.690Z,80718.09
2023-05-05T09:05:34.111Z,80719.69
2023-05-05T09:07:15.398Z,80724.81
2023-05-05T09:08:58.958Z,80730.41
2023-05-05T09:10:40.950Z,80725.63
2023-05-05T09:12:22.256Z,80721.25
2023-05-05T09:14:03.588Z,80726.22
2023-05-05T09:15:44.868Z,80739.75
2023-05-05T09:17:26.323Z,80742.03
2023-05-05T09:19:07.654Z,80726.59
2023-05-05T09:20:48.937Z,80739.69
2023-05-05T09:22:30.259Z,80739.38
2023-05-05T09:24:11.619Z,80739.91
2023-05-05T09:25:52.940Z,80736.19
2023-05-05T09:27:34.271Z,80734.09
2023-05-05T09:29:15.579Z,80733.47
2023-05-05T09:30:56.927Z,80733.06
2023-05-05T09:32:38.274Z,80733.25
2023-05-05T09:34:19.559Z,80722.81
2023-05-05T09:36:00.862Z,80723.81
2023-05-05T09:37:42.186Z,80726.88
2023-05-05T09:39:23.454Z,80723.94
2023-05-05T09:41:04.751Z,80708.94
2023-05-05T09:42:46.087Z,80717.50
2023-05-05T09:44:27.378Z,80725.28
2023-05-05T09:46:08.837Z,80714.84
2023-05-05T09:47:50.591Z,80705.78
2023-05-05T09:49:32.026Z,80715.00
2023-05-05T09:51:13.356Z,80705.78
2023-05-05T09:52:54.665Z,80705.06
2023-05-05T09:54:36.004Z,80708.41
2023-05-05T09:56:17.323Z,80707.75
2023-05-05T09:57:58.645Z,80715.63
2023-05-05T09:59:39.993Z,80708.44
2023-05-05T10:01:21.350Z,80707.06
2023-05-05T10:03:02.736Z,80707.75
2023-05-05T10:04:44.096Z,80709.72
2023-05-05T10:06:25.531Z,80708.41
2023-05-05T10:08:06.852Z,80712.34
2023-05-05T10:09:48.183Z,80706.41
2023-05-05T10:11:29.465Z,80709.06
2023-05-05T10:13:10.823Z,80703.13
2023-05-05T10:14:52.130Z,80699.81
2023-05-05T10:16:33.501Z,80701.84
2023-05-05T10:18:14.880Z,80703.13
2023-05-05T10:19:56.211Z,80699.75
2023-05-05T10:21:37.523Z,80694.53
2023-05-05T10:23:18.832Z,80703.81
2023-05-05T10:25:00.171Z,80691.88
2023-05-05T10:26:41.473Z,80702.50
2023-05-05T10:28:22.767Z,80697.13
2023-05-05T10:30:04.078Z,80695.09
2023-05-05T10:31:45.401Z,80686.50
2023-05-05T10:33:32.082Z,80690.56
2023-05-05T10:35:13.618Z,80689.88
2023-05-05T10:36:54.913Z,80691.16
2023-05-05T10:38:36.253Z,80693.81
2023-05-05T10:40:17.618Z,80691.72
2023-05-05T10:41:58.938Z,80685.72
2023-05-05T10:43:40.314Z,80688.44
2023-05-05T10:45:21.634Z,80689.69
2023-05-05T10:47:02.934Z,80686.56
2023-05-05T10:48:44.327Z,80680.66
2023-05-05T10:50:25.627Z,80691.22
2023-05-05T10:52:06.898Z,80687.97
2023-05-05T10:53:48.241Z,80691.25
2023-05-05T10:55:29.586Z,80687.94
2023-05-05T10:57:10.940Z,80691.22
2023-05-05T10:58:59.602Z,80681.38
2023-05-05T11:00:41.754Z,80685.28
2023-05-05T11:02:23.054Z,80684.53
2023-05-05T11:04:04.420Z,80680.63
2023-05-05T11:05:45.791Z,80683.84
2023-05-05T11:07:27.081Z,80672.50
2023-05-05T11:09:08.379Z,80678.44
2023-05-05T11:10:49.720Z,80680.47
2023-05-05T11:12:31.136Z,80667.91
2023-05-05T11:14:12.466Z,80677.84
2023-05-05T11:15:53.773Z,80669.25
2023-05-05T11:17:35.208Z,80675.25
2023-05-05T11:19:16.520Z,80668.00
2023-05-05T11:20:57.828Z,80673.19
2023-05-05T11:22:39.117Z,80668.69
2023-05-05T11:24:20.403Z,80671.50
2023-05-05T11:26:01.710Z,80669.47
2023-05-05T11:27:42.985Z,80672.19
2023-05-05T11:29:24.283Z,80679.41
2023-05-05T11:31:05.589Z,80674.13
2023-05-05T11:32:46.956Z,80670.81
2023-05-05T11:34:28.297Z,80674.09
2023-05-05T11:36:09.602Z,80673.47
2023-05-05T11:37:50.915Z,80672.66
2023-05-05T11:39:32.204Z,80673.38
2023-05-05T11:41:13.488Z,80666.22
2023-05-05T11:42:54.797Z,80669.47
2023-05-05T11:44:36.093Z,80674.09
2023-05-05T11:46:17.450Z,80668.06
2023-05-05T11:47:58.874Z,80661.44
2023-05-05T11:49:40.191Z,80668.81
2023-05-05T11:51:21.524Z,80674.09
2023-05-05T11:53:02.837Z,80656.06
2023-05-05T11:54:44.109Z,80668.66
2023-05-05T11:56:25.447Z,80670.50
2023-05-05T11:58:06.754Z,80666.47
2023-05-05T11:59:49.407Z,80663.13
2023-05-05T12:01:31.031Z,80663.59
2023-05-05T12:03:12.458Z,80665.09
2023-05-05T12:04:53.840Z,80659.72
2023-05-05T12:06:35.239Z,80666.91
2023-05-05T12:08:16.516Z,80659.16
2023-05-05T12:09:57.830Z,80666.34
2023-05-05T12:11:39.158Z,80664.81
2023-05-05T12:13:20.583Z,80665.06
2023-05-05T12:15:01.958Z,80672.22
2023-05-05T12:16:43.303Z,80671.72
2023-05-05T12:18:24.700Z,80675.06
2023-05-05T12:20:06.059Z,80667.47
2023-05-05T12:21:47.454Z,80676.28
2023-05-05T12:23:28.728Z,80669.50
2023-05-05T12:25:10.045Z,80670.84
2023-05-05T12:26:51.411Z,80670.34
2023-05-05T12:28:32.701Z,80673.16
2023-05-05T12:30:13.995Z,80669.78
2023-05-05T12:31:55.340Z,80673.91
2023-05-05T12:33:36.638Z,80669.31
2023-05-05T12:35:17.905Z,80671.97
2023-05-05T12:36:59.249Z,80674.28
2023-05-05T12:38:40.701Z,80666.88
2023-05-05T12:40:22.017Z,80689.84
2023-05-05T12:42:03.336Z,80691.38
2023-05-05T12:43:44.696Z,80686.16
2023-05-05T12:45:25.987Z,80693.72
2023-05-05T12:47:07.298Z,80688.75
2023-05-05T12:48:48.715Z,80689.72
2023-05-05T12:50:30.055Z,80693.00
2023-05-05T12:52:11.353Z,80689.25
2023-05-05T12:53:52.635Z,80680.47
2023-05-05T12:55:33.974Z,80680.56
2023-05-05T12:57:15.307Z,80677.06
2023-05-05T12:58:56.635Z,80675.16
2023-05-05T13:00:37.946Z,80672.59
2023-05-05T13:02:19.357Z,80677.91
2023-05-05T13:04:00.680Z,80670.75
2023-05-05T13:05:42.006Z,80668.09
2023-05-05T13:07:23.328Z,80673.31
2023-05-05T13:09:04.625Z,80676.28
2023-05-05T13:10:45.905Z,80670.13
2023-05-05T13:12:27.202Z,80666.91
2023-05-05T13:14:08.539Z,80673.38
2023-05-05T13:15:49.857Z,80668.00
2023-05-05T13:17:32.807Z,80674.59
2023-05-05T13:19:15.982Z,80665.47
2023-05-05T13:20:57.270Z,80658.59
2023-05-05T13:22:38.609Z,80648.22
2023-05-05T13:24:28.667Z,80658.66
2023-05-05T13:26:19.759Z,80659.59
2023-05-05T13:28:01.044Z,80663.50
2023-05-05T13:29:42.428Z,80663.19
2023-05-05T13:31:23.765Z,80662.94
2023-05-05T13:33:05.237Z,80660.78
2023-05-05T13:34:46.570Z,80653.59
2023-05-05T13:36:27.860Z,80657.09
2023-05-05T13:38:09.136Z,80652.09
2023-05-05T13:39:50.476Z,80651.59
2023-05-05T13:41:31.798Z,80650.59
2023-05-05T13:43:13.100Z,80655.19
2023-05-05T13:44:54.425Z,80649.59
2023-05-05T13:46:35.754Z,80642.88
2023-05-05T13:48:17.033Z,80646.00
2023-05-05T13:49:58.321Z,80641.28
2023-05-05T13:51:39.596Z,80642.84
2023-05-05T13:53:20.865Z,80646.44
2023-05-05T13:55:02.188Z,80641.69
2023-05-05T13:56:43.471Z,80640.72
2023-05-05T13:58:24.782Z,80645.66
2023-05-05T14:00:06.094Z,80639.91
2023-05-05T14:01:47.405Z,80641.91
2023-05-05T14:03:28.688Z,80641.09
2023-05-05T14:05:10.299Z,80634.41
2023-05-05T14:06:51.761Z,80639.91
2023-05-05T14:08:33.056Z,80623.19
2023-05-05T14:10:14.383Z,80624.69
2023-05-05T14:11:55.709Z,80617.72
2023-05-05T14:13:37.081Z,80612.00
2023-05-05T14:15:18.429Z,80620.47
2023-05-05T14:16:59.801Z,80622.25
2023-05-05T14:18:41.231Z,80619.78
2023-05-05T14:20:22.588Z,80608.78
2023-05-05T14:22:03.877Z,80610.16
2023-05-05T14:23:45.159Z,80620.31
2023-05-05T14:25:26.589Z,80622.31
2023-05-05T14:27:07.887Z,80619.84
2023-05-05T14:28:50.087Z,80618.91
2023-05-05T14:30:31.539Z,80616.97
2023-05-05T14:32:12.838Z,80614.88
2023-05-05T14:33:54.236Z,80617.88
2023-05-05T14:35:35.531Z,80617.84
2023-05-05T14:37:16.808Z,80625.78
2023-05-05T14:38:58.114Z,80619.69
2023-05-05T14:40:39.468Z,80613.56
2023-05-05T14:42:20.748Z,80615.81
2023-05-05T14:44:02.050Z,80614.94
2023-05-05T14:45:43.377Z,80608.09
2023-05-05T14:47:24.720Z,80622.41
2023-05-05T14:49:06.052Z,80620.59
2023-05-05T14:50:47.390Z,80617.88
2023-05-05T14:52:28.684Z,80623.75
2023-05-05T14:54:20.460Z,80617.13
2023-05-05T14:56:08.434Z,80617.41
2023-05-05T14:57:49.724Z,80627.50
2023-05-05T14:59:30.998Z,80622.41
2023-05-05T15:01:12.338Z,80621.59
2023-05-05T15:02:53.831Z,80617.84
2023-05-05T15:04:35.231Z,80625.38
2023-05-05T15:06:16.504Z,80627.56
2023-05-05T15:07:57.800Z,80630.06
2023-05-05T15:09:39.081Z,80622.75
2023-05-05T15:11:20.364Z,80625.47
2023-05-05T15:13:01.773Z,80624.47
2023-05-05T15:14:43.236Z,80628.16
2023-05-05T15:16:24.567Z,80625.09
2023-05-05T15:18:05.943Z,80620.59
2023-05-05T15:19:47.271Z,80617.38
2023-05-05T15:21:28.560Z,80620.66
2023-05-05T15:23:09.872Z,80617.44
2023-05-05T15:24:51.184Z,80614.19
2023-05-05T15:26:32.453Z,80614.84
2023-05-05T15:28:13.721Z,80615.47
2023-05-05T15:29:55.033Z,80610.22
2023-05-05T15:31:36.380Z,80616.13
2023-05-05T15:33:17.691Z,80616.78
2023-05-05T15:34:59.047Z,80618.09
2023-05-05T15:36:40.322Z,80621.41
2023-05-05T15:38:21.603Z,80616.81
2023-05-05T15:40:03.001Z,80612.91
2023-05-05T15:41:44.361Z,80624.03
2023-05-05T15:43:25.729Z,80623.91
2023-05-05T15:45:07.182Z,80620.72
2023-05-05T15:46:50.520Z,80623.41
2023-05-05T15:48:32.013Z,80620.81
2023-05-05T15:50:13.313Z,80620.13
2023-05-05T15:51:54.636Z,80626.06
2023-05-05T15:53:35.916Z,80621.44
2023-05-05T15:55:17.237Z,80630.00
2023-05-05T15:56:58.549Z,80630.66
2023-05-05T15:58:39.837Z,80627.41
2023-05-05T16:00:21.153Z,80631.31
2023-05-05T16:02:02.537Z,80622.13
2023-05-05T16:03:43.867Z,80616.81
2023-05-05T16:05:25.418Z,80622.72
2023-05-05T16:07:06.770Z,80616.75
2023-05-05T16:08:48.087Z,80617.97
2023-05-05T16:10:29.353Z,80628.41
2023-05-05T16:12:10.643Z,80619.28
2023-05-05T16:13:51.921Z,80625.22
2023-05-05T16:15:33.200Z,80627.22
2023-05-05T16:17:14.519Z,80623.19
2023-05-05T16:18:55.814Z,80628.31
2023-05-05T16:20:37.084Z,80621.94
2023-05-05T16:22:18.396Z,80634.81
2023-05-05T16:24:18.402Z,80638.81
2023-05-05T16:25:59.670Z,80625.78
2023-05-05T16:27:41.006Z,80628.41
2023-05-05T16:29:22.333Z,80638.19
2023-05-05T16:31:03.611Z,80642.13
2023-05-05T16:32:44.924Z,80632.97
2023-05-05T16:34:26.212Z,80642.88
2023-05-05T16:36:07.530Z,80639.56
2023-05-05T16:37:48.858Z,80636.84
2023-05-05T16:39:30.152Z,80637.56
2023-05-05T16:41:11.493Z,80631.16
2023-05-05T16:42:52.874Z,80632.47
2023-05-05T16:44:34.153Z,80629.19
2023-05-05T16:46:15.486Z,80634.47
2023-05-05T16:47:56.885Z,80627.19
2023-05-05T16:49:38.199Z,80629.81
2023-05-05T16:51:19.485Z,80623.97
2023-05-05T16:53:00.792Z,80623.28
2023-05-05T16:54:42.205Z,80617.22
2023-05-05T16:56:23.461Z,80621.16
2023-05-05T16:58:04.804Z,80627.50
2023-05-05T16:59:46.425Z,80626.16
2023-05-05T17:01:27.791Z,80626.97
2023-05-05T17:03:09.133Z,80623.09
2023-05-05T17:04:50.735Z,80625.72
2023-05-05T17:06:32.033Z,80628.19
2023-05-05T17:08:13.340Z,80624.31
2023-05-05T17:09:54.636Z,80632.00
2023-05-05T17:11:36.180Z,80647.09
2023-05-05T17:13:17.550Z,80640.63
2023-05-05T17:14:58.924Z,80643.25
2023-05-05T17:16:40.257Z,80649.00
2023-05-05T17:18:21.541Z,80647.69
2023-05-05T17:20:02.833Z,80649.03
2023-05-05T17:21:44.142Z,80644.50
2023-05-05T17:23:25.440Z,80645.28
2023-05-05T17:25:06.879Z,80649.88
2023-05-05T17:26:48.373Z,80657.13
2023-05-05T17:28:29.688Z,80654.44
2023-05-05T17:30:11.025Z,80660.31
2023-05-05T17:31:52.379Z,80662.34
2023-05-05T17:33:33.740Z,80662.75
2023-05-05T17:35:15.045Z,80665.47
2023-05-05T17:36:56.352Z,80649.72
2023-05-05T17:38:37.669Z,80653.13
2023-05-05T17:40:18.976Z,80654.28
2023-05-05T17:42:00.291Z,80655.94
2023-05-05T17:43:41.583Z,80651.28
2023-05-05T17:45:22.860Z,80651.97
2023-05-05T17:47:04.172Z,80640.94
2023-05-05T17:48:45.487Z,80649.88
2023-05-05T17:50:26.807Z,80648.53
2023-05-05T17:52:08.123Z,80656.31
2023-05-05T17:53:49.441Z,80666.09
2023-05-05T17:55:30.758Z,80661.13
2023-05-05T17:57:12.104Z,80665.19
2023-05-05T17:58:53.443Z,80674.50
2023-05-05T18:00:34.783Z,80674.38
2023-05-05T18:02:16.083Z,80681.44
2023-05-05T18:03:57.386Z,80676.50
2023-05-05T18:05:38.675Z,80677.28
2023-05-05T18:07:19.975Z,80685.16
2023-05-05T18:09:01.414Z,80688.69
2023-05-05T18:10:42.772Z,80676.44
2023-05-05T18:12:24.049Z,80679.22
2023-05-05T18:14:05.362Z,80682.78
2023-05-05T18:15:46.647Z,80680.56
2023-05-05T18:17:27.945Z,80681.16
2023-05-05T18:19:09.316Z,80689.72
2023-05-05T18:20:50.576Z,80688.34
2023-05-05T18:22:31.864Z,80691.44
2023-05-05T18:24:20.095Z,80691.94
2023-05-05T18:26:04.260Z,80698.84
2023-05-05T18:27:45.598Z,80698.09
2023-05-05T18:29:26.912Z,80700.34
2023-05-05T18:31:08.251Z,80698.00
2023-05-05T18:32:49.685Z,80701.81
2023-05-05T18:34:31.003Z,80702.44
2023-05-05T18:36:12.320Z,80701.66
2023-05-05T18:37:53.656Z,80705.63
2023-05-05T18:39:35.078Z,80709.25
2023-05-05T18:41:16.407Z,80710.78
2023-05-05T18:42:57.756Z,80711.91
2023-05-05T18:44:39.041Z,80719.22
2023-05-05T18:46:20.385Z,80714.91
2023-05-05T18:48:01.747Z,80720.91
2023-05-05T18:49:43.045Z,80725.84
2023-05-05T18:51:24.335Z,80721.38
2023-05-05T18:53:05.644Z,80727.53
2023-05-05T18:54:46.947Z,80723.34
2023-05-05T18:56:28.244Z,80728.31
2023-05-05T18:58:09.539Z,80720.47
2023-05-05T18:59:50.870Z,80724.16
2023-05-05T19:01:32.177Z,80722.34
2023-05-05T19:03:13.494Z,80711.13
2023-05-05T19:04:54.897Z,80720.06
2023-05-05T19:06:36.236Z,80724.53
2023-05-05T19:08:17.612Z,80724.09
2023-05-05T19:09:58.955Z,80731.22
2023-05-05T19:11:40.260Z,80732.31
2023-05-05T19:13:21.644Z,80740.16
2023-05-05T19:15:03.077Z,80743.47
2023-05-05T19:16:44.489Z,80740.44
2023-05-05T19:18:25.895Z,80738.28
2023-05-05T19:20:07.205Z,80736.00
2023-05-05T19:21:48.513Z,80746.03
2023-05-05T19:23:29.829Z,80740.84
2023-05-05T19:25:11.433Z,80742.22
2023-05-05T19:26:53.012Z,80741.25
2023-05-05T19:28:34.289Z,80738.63
2023-05-05T19:30:15.627Z,80748.38
2023-05-05T19:31:56.945Z,80745.78
2023-05-05T19:33:38.258Z,80753.72
2023-05-05T19:35:19.556Z,80757.25
2023-05-05T19:37:00.831Z,80759.53
2023-05-05T19:38:42.112Z,80756.50
2023-05-05T19:40:23.451Z,80750.44
2023-05-05T19:42:04.853Z,80751.69
2023-05-05T19:43:46.173Z,80755.25
2023-05-05T19:45:27.472Z,80764.19
2023-05-05T19:47:09.064Z,80755.13
2023-05-05T19:48:52.112Z,80762.47
2023-05-05T19:50:33.426Z,80754.09
2023-05-05T19:52:14.697Z,80756.56